Edmonton International Airport
CYEG : now visible

Airfield :











YOU CAN JOIN US ON...

 
LOGIN :

Register | Disclaimer

   EN    FR    IT 

 









Legend :    VFR   Marginal VFR   IFR   Intensive IFR   Very Intensive IFR
Visi :
Ceiling :
>= 8 km
>= 3000ft
5 to 8 km
1000 to 3000 ft
1500m to 5 km
500 to 1000 ft
800 to 1500m
200 to 500 ft
< 800m
< 200 ft
Symbols :   Thunderstorms  Fog  Heavy snow  Heavy precipitations  Wind > 20 kt






- Airport Elevation : 2373 ft
- IATA code : YEG


CYEG - Edmonton International

CURRENT METAR :
  • 050700Z 18004KT 20SM FEW130 FEW240 14/11 A2996 RMK AC1CI1 AC TR SLP144 DENSITY ALT 2800FT

EXPIRED METARs :
  • 050600Z 17008KT 20SM FEW240 17/14 A2997 RMK CI1 SLP146 DENSITY ALT 3200FT
  • 050500Z 18005KT 15SM FEW074 FEW180 FEW240 16/13 A2998 RMK CU1AC1CI1 CU TR SLP151 DENSITY ALT 3000FT

TAF TAF CYEG
Valid from the 05 at 06:00 until the 06 at 06:00 UTC


050538Z 0506/0606 18005KT P6SM FEW080
FM050900 16006KT P6SM FEW060
TEMPO 0509/0514 2SM BR
PROB30 0510/0514 1/2SM FG
FM051400 16008KT P6SM SKC RMK NXT FCST BY 050900Z
CZEG FIR / North America



MET'MAP, your aeronautical weather chart ! - Copyright ORBIFLY December 2007 - Disclaimer

ORBIFLY MET'MAP TEAM :

Programming & Development : Alexandra Zaïnal
Concept & original design : Baudouin d'Aumeries
Assistance for programming : Marc-Olivier Méhu
Technical & hardware support : Manuel Goepfert

Contact : metmap@orbifly.com




SOURCES & CREDITS :

   NOAA       Earth
Advisory